Time;durP1;ratioP1;P1;durP2;ratioP2;P2;SDS_P1;SDS_P2;PMS_P1;PMS_P2;Temp;Humidity;BMP_temperature;BMP_pressure;BME280_temperature;BME280_humidity;BME280_pressure;Samples;Min_cycle;Max_cycle;Signal;HPM_P1;HPM_P2
2022/05/28 00:01:20;;;;;;;3.13;1.20;;;9.50;99.90;;;;;;4974194;28;20223;-87
2022/05/28 00:03:48;;;;;;;3.77;1.00;;;9.50;99.90;;;;;;4974360;28;20199;-86
2022/05/28 00:06:19;;;;;;;3.70;1.30;;;9.40;99.90;;;;;;4974511;28;20207;-86
2022/05/28 00:08:46;;;;;;;3.23;1.40;;;9.30;99.90;;;;;;4978481;28;20183;-89
2022/05/28 00:11:18;;;;;;;4.37;1.27;;;9.30;99.90;;;;;;4993451;28;20257;-87
2022/05/28 00:13:45;;;;;;;4.37;1.10;;;9.30;1.00;;;;;;4993489;28;20187;-88
2022/05/28 00:16:12;;;;;;;5.53;1.10;;;9.30;1.00;;;;;;4993430;28;20667;-87
2022/05/28 00:18:40;;;;;;;3.43;1.20;;;9.30;1.00;;;;;;4992888;28;20632;-87
2022/05/28 00:21:07;;;;;;;5.17;1.20;;;9.30;1.00;;;;;;4993050;28;20306;-85
2022/05/28 00:23:36;;;;;;;5.90;1.20;;;9.30;1.00;;;;;;4993594;28;20630;-86
2022/05/28 00:26:03;;;;;;;2.93;1.00;;;9.30;1.00;;;;;;4993355;28;20625;-86
2022/05/28 00:28:30;;;;;;;4.07;0.93;;;9.30;1.00;;;;;;4993595;28;20231;-86
2022/05/28 00:30:57;;;;;;;3.63;0.90;;;9.30;1.00;;;;;;4993716;28;20206;-87
2022/05/28 00:33:24;;;;;;;2.80;1.00;;;9.40;1.00;;;;;;4993023;28;20547;-87
2022/05/28 00:35:52;;;;;;;3.80;1.07;;;9.30;1.00;;;;;;4993522;28;20249;-87
2022/05/28 00:38:19;;;;;;;9.57;1.20;;;9.40;1.00;;;;;;4993235;28;20202;-88
2022/05/28 00:40:49;;;;;;;1.50;0.70;;;9.40;99.90;;;;;;4973214;28;20219;-87
2022/05/28 00:43:17;;;;;;;2.60;0.90;;;9.30;99.90;;;;;;4974121;28;20229;-88
2022/05/28 00:45:45;;;;;;;2.93;1.00;;;9.30;99.90;;;;;;4973861;28;20531;-86
2022/05/28 00:48:17;;;;;;;7.07;1.30;;;9.30;99.90;;;;;;4973491;28;20281;-87
2022/05/28 00:50:45;;;;;;;3.27;1.10;;;9.30;99.90;;;;;;4973714;28;20251;-86
2022/05/28 00:53:12;;;;;;;3.60;1.10;;;9.20;99.90;;;;;;4973783;28;20195;-88
2022/05/28 00:55:40;;;;;;;1.60;1.03;;;9.10;99.90;;;;;;4973672;28;20203;-87
2022/05/28 00:58:10;;;;;;;5.63;1.00;;;9.10;99.90;;;;;;4973929;28;20206;-87
2022/05/28 01:00:38;;;;;;;5.13;1.00;;;9.10;99.90;;;;;;4974036;28;20207;-86
2022/05/28 01:03:15;;;;;;;6.30;1.23;;;9.10;99.90;;;;;;4974136;28;20207;-87
2022/05/28 01:05:49;;;;;;;6.67;1.27;;;9.10;99.90;;;;;;4973852;28;20234;-87
2022/05/28 01:08:24;;;;;;;5.13;3.40;;;9.10;99.90;;;;;;4973426;28;20613;-89
2022/05/28 01:10:59;;;;;;;3.50;1.10;;;9.10;99.90;;;;;;4977273;28;20225;-88
2022/05/28 01:13:34;;;;;;;6.60;1.03;;;9.10;99.90;;;;;;4977044;28;20191;-87
2022/05/28 01:16:08;;;;;;;4.73;1.20;;;9.10;99.90;;;;;;4977684;28;20243;-86
2022/05/28 01:18:40;;;;;;;4.50;1.10;;;9.10;99.90;;;;;;4983269;28;20219;-86
2022/05/28 01:21:10;;;;;;;3.53;0.90;;;9.00;99.90;;;;;;4985412;28;20694;-86
2022/05/28 01:23:51;;;;;;;3.17;1.20;;;9.00;99.90;;;;;;4977245;28;20670;-87
2022/05/28 01:26:24;;;;;;;4.60;1.30;;;8.90;99.90;;;;;;4977017;28;20203;-89
2022/05/28 01:28:57;;;;;;;5.53;1.33;;;8.90;99.90;;;;;;4976911;28;20178;-89
2022/05/28 01:31:26;;;;;;;3.20;1.00;;;8.90;99.90;;;;;;4976734;28;20593;-86
2022/05/28 01:33:55;;;;;;;3.37;1.00;;;8.80;99.90;;;;;;4976825;28;20621;-87
2022/05/28 01:36:23;;;;;;;5.83;1.27;;;8.80;99.90;;;;;;4977061;28;20193;-86
2022/05/28 01:38:52;;;;;;;4.60;1.37;;;8.70;99.90;;;;;;4976523;28;20206;-88
2022/05/28 01:41:19;;;;;;;3.80;1.00;;;8.70;99.90;;;;;;4976605;28;20217;-89
2022/05/28 01:43:49;;;;;;;4.50;1.10;;;8.70;99.90;;;;;;4986175;28;20585;-88
2022/05/28 01:46:21;;;;;;;4.70;1.20;;;8.60;99.90;;;;;;4996295;28;20279;-86
2022/05/28 01:48:53;;;;;;;5.60;1.43;;;8.50;99.90;;;;;;4996449;28;20646;-87
2022/05/28 01:51:24;;;;;;;3.77;1.17;;;8.50;99.90;;;;;;4995656;28;20634;-87
2022/05/28 01:54:11;;;;;;;2.13;1.03;;;8.40;99.90;;;;;;4995873;28;20193;-86
2022/05/28 01:56:42;;;;;;;6.27;1.40;;;8.30;99.90;;;;;;4996140;28;20223;-88
2022/05/28 01:59:09;;;;;;;7.97;1.60;;;8.30;1.00;;;;;;4996209;28;20183;-87
2022/05/28 02:01:37;;;;;;;6.63;1.47;;;8.30;1.00;;;;;;4995720;28;20215;-86
2022/05/28 02:04:05;;;;;;;3.03;1.67;;;8.30;1.00;;;;;;4995724;28;20200;-86
2022/05/28 02:06:33;;;;;;;9.30;1.70;;;8.30;1.00;;;;;;4995851;28;20192;-87
2022/05/28 02:08:59;;;;;;;1.77;1.10;;;8.20;1.00;;;;;;4995804;28;20602;-88
2022/05/28 02:11:29;;;;;;;2.50;0.93;;;8.20;1.00;;;;;;4995532;28;20200;-86
2022/05/28 02:14:10;;;;;;;3.97;1.30;;;8.20;1.00;;;;;;4984762;28;20247;-87
2022/05/28 02:16:49;;;;;;;4.57;1.33;;;8.10;1.00;;;;;;4976314;28;20692;-86
2022/05/28 02:19:25;;;;;;;8.73;1.37;;;8.10;1.00;;;;;;4976159;28;20569;-87
2022/05/28 02:22:02;;;;;;;8.93;1.33;;;8.00;1.00;;;;;;4982869;28;20208;-87
2022/05/28 02:24:34;;;;;;;2.30;1.20;;;8.00;1.00;;;;;;4995326;28;20274;-88
2022/05/28 02:27:06;;;;;;;4.17;1.30;;;8.00;1.00;;;;;;4995498;28;20184;-86
2022/05/28 02:29:34;;;;;;;4.80;1.43;;;8.00;1.00;;;;;;4994712;28;20687;-87
2022/05/28 02:32:13;;;;;;;6.13;1.80;;;8.00;1.00;;;;;;4995248;28;20200;-87
2022/05/28 02:34:40;;;;;;;4.53;1.53;;;8.10;1.00;;;;;;4995741;28;20194;-88
2022/05/28 02:37:08;;;;;;;3.47;1.27;;;8.10;1.00;;;;;;4995373;28;20194;-87
2022/05/28 02:39:35;;;;;;;4.97;1.40;;;8.10;1.00;;;;;;4995087;28;20678;-88
2022/05/28 02:42:02;;;;;;;6.13;1.40;;;8.00;1.00;;;;;;4994843;28;20732;-88
2022/05/28 02:44:29;;;;;;;5.27;1.63;;;8.00;1.00;;;;;;4979938;28;20255;-88
2022/05/28 02:46:56;;;;;;;6.83;1.50;;;7.90;1.00;;;;;;4975644;28;20231;-87
2022/05/28 02:49:25;;;;;;;4.93;1.53;;;7.90;1.00;;;;;;4975486;28;20196;-86
2022/05/28 02:51:53;;;;;;;2.13;1.27;;;7.80;1.00;;;;;;4975643;28;20193;-86
2022/05/28 02:54:20;;;;;;;6.87;1.40;;;7.80;1.00;;;;;;4982976;28;20197;-91
2022/05/28 02:56:48;;;;;;;5.80;1.30;;;7.70;1.00;;;;;;4987174;28;20201;-90
2022/05/28 02:59:15;;;;;;;5.23;1.37;;;7.70;1.00;;;;;;4985298;28;20201;-91
2022/05/28 03:01:53;;;;;;;7.53;1.53;;;7.60;1.00;;;;;;4986684;28;20223;-88
2022/05/28 03:04:22;;;;;;;4.00;1.37;;;7.60;1.00;;;;;;4990720;28;20273;-91
2022/05/28 03:06:58;;;;;;;4.83;1.40;;;7.60;1.00;;;;;;4984909;28;20446;-92
2022/05/28 03:09:26;;;;;;;5.00;1.70;;;7.60;1.00;;;;;;4985019;28;20196;-89
2022/05/28 03:11:56;;;;;;;6.43;1.30;;;7.50;1.00;;;;;;4985016;28;20231;-92
2022/05/28 03:14:26;;;;;;;4.40;1.40;;;7.60;1.00;;;;;;4997729;28;20266;-90
2022/05/28 03:17:02;;;;;;;5.80;1.50;;;7.60;1.00;;;;;;5004998;28;20650;-91
2022/05/28 03:19:36;;;;;;;4.27;1.40;;;7.60;1.00;;;;;;5005492;28;20219;-90
2022/05/28 03:22:05;;;;;;;5.20;1.40;;;7.60;1.00;;;;;;4996724;28;20224;-88
2022/05/28 03:24:32;;;;;;;3.47;1.67;;;7.70;78.20;;;;;;4995909;28;20241;-87
2022/05/28 03:26:59;;;;;;;5.07;1.70;;;7.70;99.90;;;;;;5005837;28;20250;-92
2022/05/28 03:29:45;;;;;;;7.40;1.57;;;7.80;99.90;;;;;;5016965;23;20226;-91
2022/05/28 03:32:21;;;;;;;5.90;1.63;;;7.80;99.90;;;;;;4984833;28;20283;-93
2022/05/28 03:35:00;;;;;;;6.60;1.60;;;7.90;99.90;;;;;;4985072;28;20223;-91
2022/05/28 03:37:32;;;;;;;5.17;1.40;;;8.00;99.90;;;;;;4984451;28;20643;-88
2022/05/28 03:40:01;;;;;;;9.27;2.03;;;8.00;99.90;;;;;;4984959;28;20184;-90
2022/05/28 03:42:31;;;;;;;6.23;1.77;;;8.10;99.90;;;;;;4985890;28;20322;-91
2022/05/28 03:47:40;;;;;;;6.23;1.40;;;8.50;1.00;;;;;;5002336;28;20202;-90
2022/05/28 03:50:08;;;;;;;6.80;1.57;;;9.30;1.00;;;;;;5003188;28;20218;-88
2022/05/28 03:52:58;;;;;;;5.90;1.13;;;10.20;1.00;;;;;;5007710;28;20195;-91
2022/05/28 03:55:37;;;;;;;7.80;1.40;;;11.10;99.90;;;;;;5004076;28;20161;-87
2022/05/28 03:58:11;;;;;;;5.40;1.20;;;12.10;1.00;;;;;;5002918;28;20690;-89
2022/05/28 04:00:40;;;;;;;5.80;1.07;;;12.80;1.00;;;;;;5003325;28;20261;-91
2022/05/28 04:03:07;;;;;;;2.87;1.17;;;13.10;1.00;;;;;;5004093;28;20187;-88
2022/05/28 04:05:39;;;;;;;5.17;1.20;;;13.70;1.00;;;;;;5004547;28;20184;-87
2022/05/28 04:08:08;;;;;;;1.90;1.00;;;14.40;99.90;;;;;;5000983;28;20287;-88
2022/05/28 04:10:40;;;;;;;6.20;1.20;;;14.70;1.00;;;;;;5003407;28;20606;-87
2022/05/28 04:13:08;;;;;;;7.53;1.63;;;14.30;1.00;;;;;;5003951;28;20195;-88
2022/05/28 04:15:36;;;;;;;6.17;1.60;;;13.70;99.90;;;;;;5002007;28;20183;-92
2022/05/28 04:18:03;;;;;;;4.43;1.23;;;13.10;99.90;;;;;;5001343;28;20666;-90
2022/05/28 04:20:38;;;;;;;4.30;1.53;;;12.50;99.90;;;;;;5003280;28;20248;-91
2022/05/28 04:23:07;;;;;;;8.97;1.70;;;12.10;1.00;;;;;;5006391;28;20184;-92
2022/05/28 04:25:35;;;;;;;3.80;1.43;;;12.10;1.00;;;;;;5002948;28;20232;-91
2022/05/28 04:28:02;;;;;;;7.77;1.33;;;12.60;1.00;;;;;;5001439;28;20671;-89
2022/05/28 04:30:38;;;;;;;4.03;1.10;;;13.10;1.00;;;;;;5002045;28;20248;-92
2022/05/28 04:33:05;;;;;;;4.30;1.07;;;13.70;1.00;;;;;;5004422;28;20202;-88
2022/05/28 04:35:33;;;;;;;5.53;1.00;;;13.80;1.00;;;;;;5003607;28;20198;-90
2022/05/28 04:38:01;;;;;;;5.00;1.20;;;13.60;99.90;;;;;;5003836;28;20264;-90
2022/05/28 04:40:36;;;;;;;2.63;1.10;;;13.60;99.90;;;;;;5003539;28;20205;-91
2022/05/28 04:43:04;;;;;;;5.10;1.50;;;13.70;99.90;;;;;;4995063;28;20218;-89
2022/05/28 04:45:31;;;;;;;6.57;1.60;;;13.30;99.90;;;;;;4986681;28;20201;-91
2022/05/28 04:47:58;;;;;;;24.53;11.97;;;13.00;99.90;;;;;;4986352;28;20233;-89
2022/05/28 04:50:33;;;;;;;34.43;13.33;;;12.60;99.90;;;;;;4987180;28;20204;-91
2022/05/28 04:53:00;;;;;;;46.00;17.37;;;12.20;99.90;;;;;;5007030;28;20274;-94
2022/05/28 04:55:38;;;;;;;29.00;10.37;;;12.10;99.90;;;;;;5009735;28;20220;-91
2022/05/28 04:58:05;;;;;;;58.07;23.63;;;11.90;99.90;;;;;;5010483;28;20196;-89
2022/05/28 05:00:33;;;;;;;52.27;21.43;;;11.70;99.90;;;;;;4995881;28;20199;-90
2022/05/28 05:03:01;;;;;;;37.73;13.27;;;11.50;99.90;;;;;;4991914;28;20220;-90
2022/05/28 05:05:28;;;;;;;39.47;16.33;;;11.40;1.00;;;;;;4986027;28;20203;-91
2022/05/28 05:07:58;;;;;;;17.90;8.70;;;11.60;1.00;;;;;;4986400;28;20200;-90
2022/05/28 05:10:33;;;;;;;10.13;6.43;;;11.80;1.00;;;;;;4988277;28;20255;-93
2022/05/28 05:13:01;;;;;;;10.97;6.30;;;12.00;1.00;;;;;;4988246;28;20198;-88
2022/05/28 05:15:28;;;;;;;17.27;9.67;;;12.20;1.00;;;;;;4995612;28;20199;-89
2022/05/28 05:17:55;;;;;;;13.67;7.20;;;12.60;1.00;;;;;;4985984;28;20249;-88
2022/05/28 05:20:23;;;;;;;6.13;3.93;;;12.70;99.90;;;;;;4984841;28;20199;-89
2022/05/28 05:22:54;;;;;;;8.67;2.00;;;13.00;1.00;;;;;;4986744;28;20203;-93
2022/05/28 05:25:23;;;;;;;6.83;2.60;;;13.40;99.90;;;;;;4987374;28;20199;-89
2022/05/28 05:27:51;;;;;;;6.00;1.70;;;13.40;99.90;;;;;;4985783;28;20196;-88
2022/05/28 05:30:20;;;;;;;5.30;1.50;;;13.30;99.90;;;;;;4987822;28;20259;-88
2022/05/28 05:32:47;;;;;;;4.83;1.90;;;13.20;99.90;;;;;;5004217;28;20213;-89
2022/05/28 05:35:17;;;;;;;8.97;3.70;;;13.10;99.90;;;;;;5006011;28;20611;-87
2022/05/28 05:37:49;;;;;;;4.67;1.47;;;13.20;99.90;;;;;;4995497;28;20278;-87
2022/05/28 05:40:16;;;;;;;3.47;1.27;;;13.70;99.90;;;;;;5070248;23;20240;-88
2022/05/28 05:42:46;;;;;;;6.43;2.70;;;14.10;99.90;;;;;;4988438;28;20221;-90
2022/05/28 05:45:18;;;;;;;5.43;3.03;;;14.10;99.90;;;;;;4988200;28;20187;-89
2022/05/28 05:47:47;;;;;;;3.63;1.40;;;14.10;99.90;;;;;;4985684;28;20239;-90
2022/05/28 05:50:14;;;;;;;5.57;1.77;;;13.90;45.60;;;;;;4987880;28;20192;-89
2022/05/28 05:52:41;;;;;;;3.70;1.13;;;13.50;23.80;;;;;;4986790;28;20200;-89
2022/05/28 05:55:09;;;;;;;4.77;1.57;;;13.10;34.50;;;;;;4985994;28;20603;-88
2022/05/28 05:57:39;;;;;;;6.53;2.37;;;13.20;99.90;;;;;;4987147;28;20207;-88
2022/05/28 06:00:10;;;;;;;2.37;1.20;;;13.20;99.90;;;;;;4984438;28;20218;-91
2022/05/28 06:02:37;;;;;;;2.73;1.20;;;13.10;99.90;;;;;;4998392;28;20200;-88
2022/05/28 06:05:16;;;;;;;4.50;1.20;;;13.20;99.90;;;;;;4984616;28;20195;-86
2022/05/28 06:07:43;;;;;;;3.60;1.20;;;14.20;1.00;;;;;;4985183;28;20239;-90
2022/05/28 06:10:12;;;;;;;3.92;1.15;;;15.80;99.90;;;;;;4986330;28;20226;-90
2022/05/28 06:12:38;;;;;;;;;;;16.90;99.90;;;;;;4982267;28;20250;-89
2022/05/28 06:15:07;;;;;;;3.15;1.50;;;17.30;1.00;;;;;;4986151;28;20101;-89
2022/05/28 06:17:35;;;;;;;2.65;0.88;;;17.10;1.00;;;;;;4986606;28;20254;-93
2022/05/28 06:20:03;;;;;;;4.80;1.38;;;16.90;1.00;;;;;;4986409;28;20207;-90
2022/05/28 06:22:35;;;;;;;5.32;1.58;;;16.60;1.00;;;;;;4984521;28;20219;-92
2022/05/28 06:25:02;;;;;;;6.53;2.78;;;16.20;1.00;;;;;;4986935;28;20179;-88
2022/05/28 06:27:30;;;;;;;5.47;1.95;;;15.70;1.00;;;;;;4988034;28;20262;-89
2022/05/28 06:30:03;;;;;;;3.10;1.63;;;15.20;1.00;;;;;;4986608;28;20220;-90
2022/05/28 06:32:35;;;;;;;3.33;1.30;;;15.00;1.00;;;;;;4979781;28;20254;-91
2022/05/28 06:35:06;;;;;;;2.80;0.90;;;15.00;1.00;;;;;;4982676;28;20646;-94
2022/05/28 06:37:34;;;;;;;4.87;1.10;;;15.10;1.00;;;;;;4982320;28;20179;-89
2022/05/28 06:40:05;;;;;;;3.97;1.10;;;15.00;1.00;;;;;;4980756;28;20693;-90
2022/05/28 06:42:32;;;;;;;2.93;1.20;;;15.00;1.00;;;;;;4985780;28;20661;-88
2022/05/28 06:45:05;;;;;;;2.03;0.90;;;15.20;1.00;;;;;;4986710;28;20251;-91
2022/05/28 06:47:32;;;;;;;4.80;0.83;;;15.20;1.00;;;;;;4981875;28;20193;-88
2022/05/28 06:52:53;;;;;;;3.13;1.30;;;15.40;1.00;;;;;;4983980;28;20181;-88
2022/05/28 06:55:20;;;;;;;4.53;1.07;;;15.50;1.00;;;;;;4985487;28;20192;-91
2022/05/28 06:57:47;;;;;;;7.60;4.10;;;15.50;1.00;;;;;;4984139;28;20217;-92
2022/05/28 07:00:18;;;;;;;6.93;3.17;;;15.50;1.00;;;;;;4985962;28;20659;-91
2022/05/28 07:02:46;;;;;;;3.77;1.70;;;15.30;1.00;;;;;;4985894;28;20234;-92
2022/05/28 07:05:17;;;;;;;2.67;1.00;;;15.00;1.00;;;;;;4982540;28;20206;-92
2022/05/28 07:07:46;;;;;;;3.60;1.60;;;14.80;1.00;;;;;;4984075;28;20717;-92
2022/05/28 07:10:22;;;;;;;4.23;1.83;;;14.50;1.00;;;;;;4986391;28;20197;-93
2022/05/28 07:12:50;;;;;;;4.07;1.20;;;14.10;1.00;;;;;;4984698;28;20212;-93
2022/05/28 07:15:27;;;;;;;20.97;8.97;;;13.80;1.00;;;;;;4986752;28;20219;-89
2022/05/28 07:18:06;;;;;;;12.77;6.53;;;13.60;1.00;;;;;;4986181;28;20603;-92
2022/05/28 07:20:35;;;;;;;4.63;2.83;;;13.50;1.00;;;;;;4982911;28;20222;-88
2022/05/28 07:23:20;;;;;;;14.87;10.07;;;13.50;1.00;;;;;;4981702;28;20238;-92
2022/05/28 07:25:58;;;;;;;12.33;8.37;;;13.60;1.00;;;;;;4987224;28;20230;-92
2022/05/28 07:28:45;;;;;;;19.70;16.40;;;13.90;1.00;;;;;;4987047;28;20190;-93
2022/05/28 07:31:23;;;;;;;15.60;10.70;;;14.70;76.00;;;;;;4987834;28;20264;-91
2022/05/28 07:33:56;;;;;;;17.48;13.55;;;15.90;99.90;;;;;;4985952;28;20285;-92
2022/05/28 07:36:25;;;;;;;9.40;6.07;;;16.80;1.00;;;;;;4985509;28;20202;-90
2022/05/28 07:39:06;;;;;;;5.80;1.60;;;17.00;1.00;;;;;;4986188;28;20204;-92
2022/05/28 07:41:37;;;;;;;5.28;1.80;;;16.80;1.00;;;;;;4987090;28;20206;-89
2022/05/28 07:44:11;;;;;;;3.72;2.03;;;16.40;1.00;;;;;;4984836;28;20199;-93
2022/05/28 07:46:43;;;;;;;5.00;2.20;;;16.00;1.00;;;;;;4988215;28;20181;-91
2022/05/28 07:49:19;;;;;;;6.63;1.70;;;15.50;1.00;;;;;;4985334;28;20655;-89
2022/05/28 07:51:56;;;;;;;4.03;2.00;;;15.10;1.00;;;;;;4986244;28;20206;-89
2022/05/28 07:54:34;;;;;;;3.47;1.53;;;14.80;1.00;;;;;;4986899;28;20221;-92
2022/05/28 08:00:13;;;;;;;4.10;1.70;;;14.20;1.00;;;;;;4981345;28;20208;-91
2022/05/28 08:03:05;;;;;;;6.40;1.60;;;14.00;1.00;;;;;;4986181;28;20234;-93
2022/05/28 08:05:43;;;;;;;6.50;1.83;;;13.80;1.00;;;;;;4987434;28;20699;-92
2022/05/28 08:08:11;;;;;;;4.90;1.77;;;13.80;1.00;;;;;;4988054;28;20254;-89
2022/05/28 08:10:45;;;;;;;11.60;3.07;;;13.90;1.00;;;;;;4984959;28;20279;-90
2022/05/28 08:13:14;;;;;;;7.13;2.40;;;14.00;1.00;;;;;;4999157;28;20180;-91
2022/05/28 08:15:45;;;;;;;6.67;2.53;;;13.90;1.00;;;;;;5006446;28;20179;-89
2022/05/28 08:18:32;;;;;;;5.67;2.93;;;13.90;1.00;;;;;;5004534;28;20218;-91
2022/05/28 08:24:01;;;;;;;6.03;1.67;;;13.70;1.00;;;;;;4963667;28;20704;-89
2022/05/28 08:26:35;;;;;;;6.07;2.17;;;13.50;1.00;;;;;;4986421;28;20260;-88
2022/05/28 08:29:06;;;;;;;1.50;1.03;;;13.30;1.00;;;;;;4999520;28;20212;-91
2022/05/28 08:31:33;;;;;;;3.83;1.40;;;13.20;1.00;;;;;;5006181;28;20212;-87
2022/05/28 08:34:12;;;;;;;4.90;1.80;;;13.20;1.00;;;;;;5003481;28;20254;-91
2022/05/28 08:36:41;;;;;;;5.90;2.40;;;13.10;1.00;;;;;;5004940;28;20212;-93
2022/05/28 08:39:11;;;;;;;3.17;1.30;;;13.10;1.00;;;;;;5003874;28;20219;-90
2022/05/28 08:41:55;;;;;;;5.07;1.17;;;13.10;1.00;;;;;;4990609;28;20172;-93
2022/05/28 08:44:36;;;;;;;2.43;1.23;;;13.00;1.00;;;;;;4984091;28;20224;-96
2022/05/28 08:47:17;;;;;;;5.60;1.33;;;13.00;1.00;;;;;;4985725;28;20206;-92
2022/05/28 08:49:45;;;;;;;4.70;1.50;;;12.80;1.00;;;;;;4990854;28;20205;-89
2022/05/28 08:52:26;;;;;;;2.87;1.53;;;12.70;1.00;;;;;;4985931;28;20189;-93
2022/05/28 08:55:00;;;;;;;5.03;1.93;;;12.60;1.00;;;;;;4989057;28;20181;-90
2022/05/28 08:57:51;;;;;;;14.40;6.23;;;12.60;1.00;;;;;;4985952;28;20170;-93
2022/05/28 09:00:39;;;;;;;26.03;12.67;;;12.70;23.30;;;;;;4989192;28;20202;-91
2022/05/28 09:03:14;;;;;;;8.50;3.40;;;13.00;59.50;;;;;;4986616;28;20264;-90
2022/05/28 09:08:43;;;;;;;21.43;13.93;;;13.80;16.40;;;;;;4979662;28;20196;-87
2022/05/28 09:11:16;;;;;;;7.73;5.30;;;14.00;1.00;;;;;;4981702;28;20201;-93
2022/05/28 09:13:58;;;;;;;8.73;4.40;;;14.30;1.00;;;;;;4981197;28;20188;-88
2022/05/28 09:16:35;;;;;;;10.17;4.60;;;14.50;1.00;;;;;;4981842;28;20200;-89
2022/05/28 09:19:13;;;;;;;9.57;3.20;;;14.90;1.00;;;;;;4981247;28;20285;-92
2022/05/28 09:21:41;;;;;;;4.93;1.40;;;15.50;1.00;;;;;;5001810;28;20210;-91
2022/05/28 09:24:19;;;;;;;7.47;4.17;;;15.90;1.00;;;;;;5001352;28;20251;-90
2022/05/28 09:27:08;;;;;;;11.50;5.00;;;15.80;1.00;;;;;;5001342;28;20209;-90
2022/05/28 09:30:04;;;;;;;11.33;3.90;;;15.60;1.00;;;;;;4983109;28;20184;-92
2022/05/28 09:33:18;;;;;;;11.27;4.30;;;15.20;1.00;;;;;;4971890;28;20214;-89
2022/05/28 09:36:03;;;;;;;10.40;4.50;;;14.70;1.00;;;;;;4978313;28;20194;-89
2022/05/28 09:38:53;;;;;;;8.40;3.97;;;14.30;1.00;;;;;;4985666;28;20190;-94
2022/05/28 09:41:48;;;;;;;10.50;4.93;;;14.10;1.00;;;;;;4989145;28;20196;-93
2022/05/28 09:44:29;;;;;;;5.37;2.80;;;13.80;1.00;;;;;;4986534;28;20568;-92
2022/05/28 09:47:07;;;;;;;4.23;2.17;;;13.70;1.00;;;;;;4988007;28;20645;-92
2022/05/28 09:49:48;;;;;;;6.57;2.83;;;13.50;1.00;;;;;;4982920;28;20164;-93
2022/05/28 09:52:24;;;;;;;5.80;2.67;;;13.40;1.00;;;;;;4988277;28;20543;-94
2022/05/28 09:55:07;;;;;;;4.27;2.20;;;13.30;1.00;;;;;;4983346;28;20624;-93
2022/05/28 09:57:53;;;;;;;10.13;4.87;;;13.20;1.00;;;;;;4983412;28;20229;-93
2022/05/28 10:00:22;;;;;;;4.67;1.93;;;13.20;46.80;;;;;;4984184;28;20273;-93
2022/05/28 10:05:58;;;;;;;4.83;2.77;;;13.40;38.50;;;;;;4985094;28;20184;-92
2022/05/28 10:08:31;;;;;;;9.23;3.67;;;13.30;38.30;;;;;;4987581;28;20190;-91
2022/05/28 10:11:04;;;;;;;9.53;3.27;;;13.30;90.30;;;;;;4987837;28;20214;-91
2022/05/28 10:13:44;;;;;;;5.63;2.50;;;13.20;95.20;;;;;;4988401;28;20194;-93
2022/05/28 10:16:18;;;;;;;6.13;1.90;;;13.20;99.90;;;;;;4984476;28;20189;-95
2022/05/28 10:18:59;;;;;;;12.67;2.30;;;13.30;99.90;;;;;;4985569;28;20632;-94
2022/05/28 10:21:40;;;;;;;9.03;3.20;;;13.30;99.90;;;;;;4982460;28;20189;-94
2022/05/28 10:24:21;;;;;;;5.83;1.90;;;13.40;99.90;;;;;;4975571;28;20224;-93
2022/05/28 10:27:01;;;;;;;5.80;1.83;;;13.50;99.90;;;;;;4986059;28;20199;-93
2022/05/28 10:29:47;;;;;;;4.00;1.47;;;13.70;99.90;;;;;;4981132;28;20199;-92
2022/05/28 10:32:25;;;;;;;4.53;1.40;;;13.80;99.90;;;;;;4986841;28;20199;-94
2022/05/28 10:35:04;;;;;;;4.03;1.47;;;13.80;99.90;;;;;;4987861;28;20192;-92
2022/05/28 10:37:46;;;;;;;3.60;1.77;;;13.70;99.90;;;;;;4987628;28;20176;-93
2022/05/28 10:40:24;;;;;;;7.37;1.93;;;13.60;99.90;;;;;;4970956;28;20277;-92
2022/05/28 10:42:58;;;;;;;6.20;1.70;;;13.40;99.90;;;;;;4986630;28;20611;-93
2022/05/28 10:45:37;;;;;;;4.70;1.73;;;13.30;99.90;;;;;;4988178;28;20211;-89
2022/05/28 10:48:35;;;;;;;4.03;1.57;;;13.00;99.90;;;;;;4985220;28;20672;-90
2022/05/28 10:51:28;;;;;;;3.30;1.40;;;13.00;1.00;;;;;;4981636;28;20194;-94
2022/05/28 10:54:20;;;;;;;3.17;1.43;;;13.00;1.00;;;;;;4982426;28;20221;-91
2022/05/28 10:56:53;;;;;;;3.70;1.67;;;13.10;1.00;;;;;;4987374;28;20191;-93
2022/05/28 11:00:03;;;;;;;3.90;1.90;;;13.10;1.00;;;;;;4987024;28;20213;-93
2022/05/28 11:03:12;;;;;;;4.37;1.90;;;13.00;1.00;;;;;;4981545;28;20200;-94
2022/05/28 11:06:25;;;;;;;5.30;1.80;;;12.80;1.00;;;;;;4986521;28;20188;-91
2022/05/28 11:09:01;;;;;;;4.20;1.90;;;12.60;1.00;;;;;;4984699;28;20198;-94
2022/05/28 11:11:52;;;;;;;5.00;1.90;;;12.50;1.00;;;;;;4985715;28;20196;-95
2022/05/28 11:14:54;;;;;;;4.87;2.40;;;12.50;1.00;;;;;;4986518;28;20451;-94
2022/05/28 11:17:45;;;;;;;6.33;1.90;;;12.50;1.00;;;;;;4957218;28;20204;-93
2022/05/28 11:20:26;;;;;;;5.30;3.30;;;12.50;1.00;;;;;;4987309;28;20208;-91
2022/05/28 11:23:40;;;;;;;7.67;4.83;;;12.40;1.00;;;;;;4988047;28;20275;-94
2022/05/28 11:26:25;;;;;;;9.47;2.97;;;12.30;1.00;;;;;;4985106;28;20183;-94
2022/05/28 11:29:35;;;;;;;4.70;2.13;;;12.20;1.00;;;;;;4985910;28;20213;-93
2022/05/28 11:32:13;;;;;;;6.53;3.10;;;12.30;1.00;;;;;;4972327;28;20200;-92
2022/05/28 11:34:54;;;;;;;5.10;2.57;;;12.40;15.70;;;;;;4988078;28;20192;-93
2022/05/28 11:37:37;;;;;;;5.23;2.53;;;12.50;21.20;;;;;;4986904;28;20181;-93
2022/05/28 11:40:32;;;;;;;6.10;3.17;;;12.60;45.50;;;;;;4984084;28;20221;-94
2022/05/28 11:43:12;;;;;;;7.97;1.93;;;12.80;99.90;;;;;;4986882;28;20226;-93
2022/05/28 11:45:53;;;;;;;5.07;2.00;;;13.00;99.90;;;;;;4986145;28;20207;-94
2022/05/28 11:48:29;;;;;;;4.53;2.03;;;13.10;43.10;;;;;;4986366;28;20207;-91
2022/05/28 11:51:35;;;;;;;6.93;2.20;;;13.30;1.70;;;;;;4985539;28;20184;-91
2022/05/28 11:54:28;;;;;;;5.80;2.20;;;13.40;1.00;;;;;;4988358;28;20556;-88
2022/05/28 11:57:14;;;;;;;8.53;3.20;;;13.60;1.00;;;;;;4979848;28;20206;-93
2022/05/28 11:59:52;;;;;;;5.77;2.93;;;14.00;23.60;;;;;;4982226;28;20184;-91
2022/05/28 12:02:22;;;;;;;;;;;14.30;1.00;;;;;;4998879;28;20181;-92
2022/05/28 12:05:14;;;;;;;7.87;2.53;;;14.70;1.00;;;;;;5003267;28;20043;-94
2022/05/28 12:07:41;;;;;;;;;;;15.10;1.00;;;;;;4982978;28;20081;-89
2022/05/28 12:10:14;;;;;;;7.30;2.90;;;15.50;1.00;;;;;;4989058;28;20071;-90
2022/05/28 12:12:59;;;;;;;6.93;2.40;;;15.90;1.00;;;;;;4982148;28;20190;-91
2022/05/28 12:15:37;;;;;;;4.28;1.75;;;16.40;1.00;;;;;;4983554;28;20205;-92
2022/05/28 12:18:13;;;;;;;;;;;16.60;1.00;;;;;;4982338;28;20213;-93
2022/05/28 12:20:53;;;;;;;5.82;2.42;;;16.80;99.90;;;;;;4983243;28;20045;-90
2022/05/28 12:23:35;;;;;;;8.23;2.60;;;16.80;99.90;;;;;;4988296;28;20563;-93
2022/05/28 12:26:05;;;;;;;9.00;3.50;;;16.40;99.90;;;;;;4982765;28;20166;-91
2022/05/28 12:28:49;;;;;;;11.87;3.07;;;16.00;99.90;;;;;;4985232;28;20190;-94
2022/05/28 12:31:25;;;;;;;7.63;2.20;;;15.60;99.90;;;;;;4987194;28;20187;-93
2022/05/28 12:34:01;;;;;;;8.50;2.33;;;15.30;99.90;;;;;;4991058;28;20241;-95
2022/05/28 12:36:39;;;;;;;4.13;1.87;;;15.00;99.90;;;;;;4993482;28;20190;-91
2022/05/28 12:39:34;;;;;;;7.17;2.30;;;14.70;99.90;;;;;;4994634;28;20184;-94
2022/05/28 12:42:06;;;;;;;4.03;2.10;;;14.40;99.90;;;;;;4987052;28;20288;-95
2022/05/28 12:44:51;;;;;;;9.53;3.03;;;14.40;99.90;;;;;;4987864;28;20253;-93
2022/05/28 12:47:34;;;;;;;10.27;4.63;;;14.50;1.00;;;;;;4986379;28;20181;-93
2022/05/28 12:50:24;;;;;;;15.43;5.73;;;14.60;1.00;;;;;;4985193;28;20244;-93
2022/05/28 12:53:07;;;;;;;11.60;5.67;;;14.70;1.00;;;;;;4986875;28;20206;-90
2022/05/28 12:55:38;;;;;;;7.57;2.90;;;14.70;1.00;;;;;;4983932;28;20207;-94
2022/05/28 12:58:16;;;;;;;7.47;4.07;;;14.60;1.00;;;;;;4986185;28;20238;-89
2022/05/28 13:00:58;;;;;;;5.50;2.17;;;14.40;1.00;;;;;;4985010;28;20644;-92
2022/05/28 13:03:32;;;;;;;5.50;2.80;;;14.00;1.00;;;;;;4983933;28;20208;-89
2022/05/28 13:06:11;;;;;;;4.53;2.33;;;13.80;1.00;;;;;;4991811;28;20179;-89
2022/05/28 13:08:58;;;;;;;7.67;3.60;;;13.60;1.00;;;;;;5009339;28;20240;-91
2022/05/28 13:11:46;;;;;;;4.57;2.47;;;13.60;1.00;;;;;;5011825;28;20197;-92
2022/05/28 13:14:55;;;;;;;5.77;1.60;;;13.80;1.00;;;;;;5008374;28;20637;-90
2022/05/28 13:20:59;;;;;;;7.17;1.70;;;14.60;1.00;;;;;;5009261;28;20226;-92
2022/05/28 13:23:50;;;;;;;3.73;1.87;;;14.90;1.00;;;;;;5011609;28;20201;-93
2022/05/28 13:26:47;;;;;;;8.10;2.70;;;15.00;1.00;;;;;;5010790;28;20209;-91
2022/05/28 13:29:53;;;;;;;10.90;4.63;;;15.10;1.00;;;;;;5008833;28;20206;-91
2022/05/28 13:32:31;;;;;;;6.90;2.77;;;15.30;1.00;;;;;;5009153;28;20647;-94
2022/05/28 13:35:01;;;;;;;7.87;2.40;;;15.50;1.00;;;;;;5007998;28;20206;-90
2022/05/28 13:37:40;;;;;;;5.83;2.33;;;15.50;99.90;;;;;;5007221;28;20206;-90
2022/05/28 13:40:43;;;;;;;10.50;4.03;;;15.60;99.90;;;;;;5007738;28;20231;-92
2022/05/28 13:43:31;;;;;;;15.23;5.53;;;15.70;99.90;;;;;;5011324;28;20203;-94
2022/05/28 13:46:09;;;;;;;13.30;5.93;;;16.00;99.90;;;;;;4987620;28;20229;-93
2022/05/28 13:48:43;;;;;;;12.20;5.13;;;16.20;99.90;;;;;;4984493;28;20268;-86
2022/05/28 13:51:29;;;;;;;7.27;2.50;;;16.30;99.90;;;;;;4989624;28;20211;-92
2022/05/28 13:54:03;;;;;;;6.93;2.72;;;16.40;99.90;;;;;;4989601;28;20200;-93
2022/05/28 13:56:32;;;;;;;4.55;2.03;;;16.40;99.90;;;;;;4987296;28;20566;-89
2022/05/28 13:59:09;;;;;;;7.18;2.08;;;16.50;99.90;;;;;;4988030;28;20233;-91